Augusta Springs, Virginia
Current Conditions -  °F | °C
As of 4:15 AM on Wednesday 22 Oct 2014 (Local Time) from KW13 Reporting Station
Overcast Overcast  
Wind Chill: 49°   Ceiling: 3800
Heat Index: 49°   Visibility: 10mi
Dew Point: 41°   Wind: 3mph
Humidity: 75%   Direction: 320°NW
Pressure: 29.93"   Gusts: NA
Location:  38.1°N, 79.32°W
Report Text: KW13 220815Z AUTO 32003KT 10SM BKN038 BKN044 OVC050 09/05 A2993 RMK AO1 T00920049
Loading
Personal Weather Stations






























Interactive Weather Map
Tropical Storm Tracking
New forecast layout! Learn more

10-Day Weather Forecast

Advertisements
Track Severe Weather on mobile